DNJODNCA

Guest
Details From DNJO - YAKUBU GOWON
To DNCA - CALABAR
Flight Number -
Tags generated
Created
Modified
Stats Distance 302 nm / 558 km
Max Altitude 23,500 ft / 7,163 m
Waypoints 4
Social Downloads 1
Likes 0
Share VATSIM

Download

Looking for another format? Having issues loading an existing format? Contact us
Advertisement - Login to hide

Notes

Basic altitude profile: - Ascent Rate: 2500ft/min - Ascent Speed: 250kts - Cruise Altitude: 35000ft - Cruise Speed: 420kts - Descent Rate: 1500ft/min - Descent Speed: 250kts

Route

DNJO JOS UA604 OBUDU DNCA

ID Type Via Altitude Latitude Longitude Leg Dist Tot Dist Heading (true) Name
O DNJO APT - 0 ft / 0 m 9.63982˚ 8.86908˚ - 0 nm - YAKUBU GOWON
JOS VOR - 500 ft / 152 m 9.64219˚ 8.84300˚ 1 nm 1 nm 275° / 275° JOS VOR-DME
OBUDU FIX UA604 (AWY-HI) 23,500 ft / 7,163 m 6.16772˚ 9.25694˚ 210 nm 211 nm 173° / 173° -
O DNCA APT - 0 ft / 0 m 4.97605˚ 8.34730˚ 89 nm 301 nm 217° / 217° CALABAR

Altitude Profile

Advertisement - Login to hide

Weather


0- 5 10 15 20 25 30 35+ Temperature / ° C

Clouds and Precipitation
Forecast for 2017-12-13 06:00 UTC. Updated 36 minutes ago

Ground ~20,000 ft ~40,000 ft Winds

DNJO

Details ICAO DNJO (JOS)
Name YAKUBU GOWON
Region Nigeria
Timezone Africa/Lagos (UTC+1.0)
Stats Elevation 4,232 ft / 1,290 m (AMSL)
Location 9.639822° 8.869083°
Runways 1
Magnetic Variation 0.365° W

METAR

Not found

TAF

TAF DNJO 130300Z 1306/1412 04006KT 4000 HZ NSC BECMG 1310/1312 7000 NSW

Decode

Departure Runways

ID Width Length Bearing (true) Bearing (mag) Surface Threshold Offset Overrun Length
10 148 ft / 45 m 9,837 ft / 2,998 m 95.25° 95.61° Asphalt 0 ft / 0 m 197 ft / 60 m
28 148 ft / 45 m 9,837 ft / 2,998 m 275.25° 275.61° Asphalt 0 ft / 0 m 197 ft / 60 m

DNCA

Details ICAO DNCA (CBQ)
Name CALABAR
Region Nigeria
Timezone Africa/Lagos (UTC+1.0)
Stats Elevation 210 ft / 64 m (AMSL)
Location 4.976046° 8.347299°
Runways 1
Magnetic Variation 1.272° W

METAR

Not found

TAF

TAF DNCA 130350Z 1306/1412 27005KT 1500 BR FEW008 TEMPO 1306/1308 0800 FG VV/// BECMG 1909/1311 5000 TEMPO 1312/1316 BKN013 FEW023CB

Decode

Destination Runways

ID Width Length Bearing (true) Bearing (mag) Surface Threshold Offset Overrun Length
03 148 ft / 45 m 8,076 ft / 2,462 m 26.78° 28.05° Asphalt 0 ft / 0 m 200 ft / 61 m
21 148 ft / 45 m 8,076 ft / 2,462 m 206.78° 208.05° Asphalt 0 ft / 0 m 200 ft / 61 m

Approach Navaids

Runway Type Ident Frequency Range Bearing (true) Bearing (mag) Slope Elevation
21 Localiser ICL 109.10 MHz 18 nm / 33 km 208.93° 210.20° - 200 ft / 61 m (AMSL)